sensor_id;sensor_type;location;lat;lon;timestamp;P1;durP1;ratioP1;P2;durP2;ratioP2
27728;SDS011;15126;42.186;24.340;2022-12-29T00:02:00;39.93;;;33.23;;
27728;SDS011;15126;42.186;24.340;2022-12-29T00:04:27;41.53;;;33.83;;
27728;SDS011;15126;42.186;24.340;2022-12-29T00:06:56;40.93;;;34.10;;
27728;SDS011;15126;42.186;24.340;2022-12-29T00:09:23;39.60;;;34.47;;
27728;SDS011;15126;42.186;24.340;2022-12-29T00:11:49;41.47;;;32.77;;
27728;SDS011;15126;42.186;24.340;2022-12-29T00:14:16;39.53;;;32.20;;
27728;SDS011;15126;42.186;24.340;2022-12-29T00:17:01;41.57;;;34.97;;
27728;SDS011;15126;42.186;24.340;2022-12-29T00:19:28;40.70;;;34.80;;
27728;SDS011;15126;42.186;24.340;2022-12-29T00:22:23;39.80;;;34.90;;
27728;SDS011;15126;42.186;24.340;2022-12-29T00:25:08;40.80;;;35.67;;
27728;SDS011;15126;42.186;24.340;2022-12-29T00:27:53;39.33;;;35.07;;
27728;SDS011;15126;42.186;24.340;2022-12-29T00:30:38;43.37;;;35.50;;
27728;SDS011;15126;42.186;24.340;2022-12-29T00:33:22;39.73;;;33.43;;
27728;SDS011;15126;42.186;24.340;2022-12-29T00:36:10;42.60;;;36.40;;
27728;SDS011;15126;42.186;24.340;2022-12-29T00:38:43;42.30;;;37.20;;
27728;SDS011;15126;42.186;24.340;2022-12-29T00:41:31;45.10;;;37.40;;
27728;SDS011;15126;42.186;24.340;2022-12-29T00:44:15;40.00;;;35.70;;
27728;SDS011;15126;42.186;24.340;2022-12-29T00:46:42;41.90;;;35.83;;
27728;SDS011;15126;42.186;24.340;2022-12-29T00:49:10;42.93;;;34.37;;
27728;SDS011;15126;42.186;24.340;2022-12-29T00:51:58;40.77;;;35.17;;
27728;SDS011;15126;42.186;24.340;2022-12-29T00:54:28;41.43;;;34.30;;
27728;SDS011;15126;42.186;24.340;2022-12-29T00:56:55;37.77;;;33.67;;
27728;SDS011;15126;42.186;24.340;2022-12-29T00:59:22;43.90;;;37.13;;
27728;SDS011;15126;42.186;24.340;2022-12-29T01:01:50;46.33;;;36.47;;
27728;SDS011;15126;42.186;24.340;2022-12-29T01:04:18;42.33;;;34.50;;
27728;SDS011;15126;42.186;24.340;2022-12-29T01:06:45;40.20;;;33.33;;
27728;SDS011;15126;42.186;24.340;2022-12-29T01:09:12;42.03;;;34.47;;
27728;SDS011;15126;42.186;24.340;2022-12-29T01:11:58;51.07;;;35.10;;
27728;SDS011;15126;42.186;24.340;2022-12-29T01:14:25;46.07;;;38.03;;
27728;SDS011;15126;42.186;24.340;2022-12-29T01:16:52;46.17;;;37.07;;
27728;SDS011;15126;42.186;24.340;2022-12-29T01:19:20;44.27;;;35.97;;
27728;SDS011;15126;42.186;24.340;2022-12-29T01:21:47;47.50;;;35.60;;
27728;SDS011;15126;42.186;24.340;2022-12-29T01:24:14;44.40;;;34.50;;
27728;SDS011;15126;42.186;24.340;2022-12-29T01:26:42;41.47;;;34.53;;
27728;SDS011;15126;42.186;24.340;2022-12-29T01:29:11;40.30;;;32.23;;
27728;SDS011;15126;42.186;24.340;2022-12-29T01:31:38;36.57;;;32.57;;
27728;SDS011;15126;42.186;24.340;2022-12-29T01:34:05;37.53;;;31.93;;
27728;SDS011;15126;42.186;24.340;2022-12-29T01:36:32;39.10;;;31.33;;
27728;SDS011;15126;42.186;24.340;2022-12-29T01:38:59;37.60;;;31.43;;
27728;SDS011;15126;42.186;24.340;2022-12-29T01:41:26;37.20;;;31.20;;
27728;SDS011;15126;42.186;24.340;2022-12-29T01:43:54;39.27;;;32.23;;
27728;SDS011;15126;42.186;24.340;2022-12-29T01:46:24;51.37;;;40.73;;
27728;SDS011;15126;42.186;24.340;2022-12-29T01:48:55;49.87;;;42.87;;
27728;SDS011;15126;42.186;24.340;2022-12-29T01:51:29;52.77;;;45.00;;
27728;SDS011;15126;42.186;24.340;2022-12-29T01:53:58;62.80;;;46.37;;
27728;SDS011;15126;42.186;24.340;2022-12-29T01:56:28;55.87;;;45.63;;
27728;SDS011;15126;42.186;24.340;2022-12-29T01:58:57;58.83;;;47.10;;
27728;SDS011;15126;42.186;24.340;2022-12-29T02:01:31;50.70;;;44.53;;
27728;SDS011;15126;42.186;24.340;2022-12-29T02:03:58;42.50;;;37.63;;
27728;SDS011;15126;42.186;24.340;2022-12-29T02:06:26;40.20;;;35.07;;
27728;SDS011;15126;42.186;24.340;2022-12-29T02:08:57;39.13;;;34.67;;
27728;SDS011;15126;42.186;24.340;2022-12-29T02:11:25;38.40;;;33.43;;
27728;SDS011;15126;42.186;24.340;2022-12-29T02:13:54;41.90;;;33.93;;
27728;SDS011;15126;42.186;24.340;2022-12-29T02:16:27;38.17;;;34.00;;
27728;SDS011;15126;42.186;24.340;2022-12-29T02:19:12;37.17;;;33.17;;
27728;SDS011;15126;42.186;24.340;2022-12-29T02:22:07;38.80;;;34.07;;
27728;SDS011;15126;42.186;24.340;2022-12-29T02:24:55;41.23;;;34.13;;
27728;SDS011;15126;42.186;24.340;2022-12-29T02:27:48;42.13;;;33.27;;
27728;SDS011;15126;42.186;24.340;2022-12-29T02:30:37;39.50;;;32.80;;
27728;SDS011;15126;42.186;24.340;2022-12-29T02:33:11;37.87;;;32.67;;
27728;SDS011;15126;42.186;24.340;2022-12-29T02:35:48;38.73;;;32.53;;
27728;SDS011;15126;42.186;24.340;2022-12-29T02:38:25;37.63;;;32.73;;
27728;SDS011;15126;42.186;24.340;2022-12-29T02:41:07;39.77;;;35.30;;
27728;SDS011;15126;42.186;24.340;2022-12-29T02:43:44;44.10;;;37.13;;
27728;SDS011;15126;42.186;24.340;2022-12-29T02:46:19;40.13;;;34.80;;
27728;SDS011;15126;42.186;24.340;2022-12-29T02:48:54;37.43;;;32.10;;
27728;SDS011;15126;42.186;24.340;2022-12-29T02:51:30;36.90;;;32.27;;
27728;SDS011;15126;42.186;24.340;2022-12-29T02:54:01;36.73;;;32.60;;
27728;SDS011;15126;42.186;24.340;2022-12-29T02:56:48;37.97;;;31.07;;
27728;SDS011;15126;42.186;24.340;2022-12-29T02:59:15;38.73;;;32.37;;
27728;SDS011;15126;42.186;24.340;2022-12-29T03:01:50;39.90;;;32.20;;
27728;SDS011;15126;42.186;24.340;2022-12-29T03:07:49;32.10;;;28.47;;
27728;SDS011;15126;42.186;24.340;2022-12-29T03:10:30;36.07;;;30.80;;
27728;SDS011;15126;42.186;24.340;2022-12-29T03:13:04;32.87;;;28.20;;
27728;SDS011;15126;42.186;24.340;2022-12-29T03:15:59;35.07;;;29.07;;
27728;SDS011;15126;42.186;24.340;2022-12-29T03:18:36;33.63;;;28.27;;
27728;SDS011;15126;42.186;24.340;2022-12-29T03:21:08;35.57;;;31.40;;
27728;SDS011;15126;42.186;24.340;2022-12-29T03:23:38;37.70;;;29.93;;
27728;SDS011;15126;42.186;24.340;2022-12-29T03:26:08;32.37;;;28.40;;
27728;SDS011;15126;42.186;24.340;2022-12-29T03:28:39;29.40;;;25.83;;
27728;SDS011;15126;42.186;24.340;2022-12-29T03:31:10;26.40;;;23.23;;
27728;SDS011;15126;42.186;24.340;2022-12-29T03:33:41;26.83;;;23.87;;
27728;SDS011;15126;42.186;24.340;2022-12-29T03:36:12;28.30;;;23.50;;
27728;SDS011;15126;42.186;24.340;2022-12-29T03:38:50;24.80;;;22.27;;
27728;SDS011;15126;42.186;24.340;2022-12-29T03:41:26;26.90;;;23.23;;
27728;SDS011;15126;42.186;24.340;2022-12-29T03:43:56;23.57;;;21.20;;
27728;SDS011;15126;42.186;24.340;2022-12-29T03:46:23;23.43;;;21.03;;
27728;SDS011;15126;42.186;24.340;2022-12-29T03:48:51;22.23;;;19.90;;
27728;SDS011;15126;42.186;24.340;2022-12-29T03:51:18;23.53;;;20.43;;
27728;SDS011;15126;42.186;24.340;2022-12-29T03:53:44;30.27;;;22.27;;
27728;SDS011;15126;42.186;24.340;2022-12-29T03:56:11;25.63;;;21.07;;
27728;SDS011;15126;42.186;24.340;2022-12-29T03:58:38;23.43;;;19.90;;
27728;SDS011;15126;42.186;24.340;2022-12-29T04:01:05;26.03;;;21.77;;
27728;SDS011;15126;42.186;24.340;2022-12-29T04:03:32;22.03;;;19.70;;
27728;SDS011;15126;42.186;24.340;2022-12-29T04:06:03;20.87;;;18.53;;
27728;SDS011;15126;42.186;24.340;2022-12-29T04:08:30;20.83;;;18.43;;
27728;SDS011;15126;42.186;24.340;2022-12-29T04:10:57;21.60;;;17.90;;
27728;SDS011;15126;42.186;24.340;2022-12-29T04:13:24;20.60;;;17.47;;
27728;SDS011;15126;42.186;24.340;2022-12-29T04:15:51;22.90;;;17.30;;
27728;SDS011;15126;42.186;24.340;2022-12-29T04:18:17;18.70;;;16.27;;
27728;SDS011;15126;42.186;24.340;2022-12-29T04:20:44;17.60;;;15.37;;
27728;SDS011;15126;42.186;24.340;2022-12-29T04:23:29;20.07;;;17.17;;
27728;SDS011;15126;42.186;24.340;2022-12-29T04:25:57;18.97;;;17.07;;
27728;SDS011;15126;42.186;24.340;2022-12-29T04:28:24;23.87;;;19.47;;
27728;SDS011;15126;42.186;24.340;2022-12-29T04:30:51;24.30;;;18.00;;
27728;SDS011;15126;42.186;24.340;2022-12-29T04:33:19;20.23;;;17.53;;
27728;SDS011;15126;42.186;24.340;2022-12-29T04:35:46;26.67;;;20.10;;
27728;SDS011;15126;42.186;24.340;2022-12-29T04:38:13;27.40;;;21.53;;
27728;SDS011;15126;42.186;24.340;2022-12-29T04:40:42;26.10;;;23.43;;
27728;SDS011;15126;42.186;24.340;2022-12-29T04:43:09;30.50;;;23.87;;
27728;SDS011;15126;42.186;24.340;2022-12-29T04:45:37;29.40;;;23.33;;
27728;SDS011;15126;42.186;24.340;2022-12-29T04:48:04;24.60;;;21.47;;
27728;SDS011;15126;42.186;24.340;2022-12-29T04:50:31;25.13;;;22.60;;
27728;SDS011;15126;42.186;24.340;2022-12-29T04:52:58;30.57;;;26.63;;
27728;SDS011;15126;42.186;24.340;2022-12-29T04:55:25;32.60;;;27.90;;
27728;SDS011;15126;42.186;24.340;2022-12-29T04:57:53;33.73;;;27.00;;
27728;SDS011;15126;42.186;24.340;2022-12-29T05:00:20;33.87;;;29.57;;
27728;SDS011;15126;42.186;24.340;2022-12-29T05:02:47;35.13;;;26.07;;
27728;SDS011;15126;42.186;24.340;2022-12-29T05:05:14;35.10;;;25.80;;
27728;SDS011;15126;42.186;24.340;2022-12-29T05:07:41;32.87;;;23.87;;
27728;SDS011;15126;42.186;24.340;2022-12-29T05:10:08;31.53;;;26.00;;
27728;SDS011;15126;42.186;24.340;2022-12-29T05:12:35;36.87;;;26.80;;
27728;SDS011;15126;42.186;24.340;2022-12-29T05:15:05;31.43;;;28.03;;
27728;SDS011;15126;42.186;24.340;2022-12-29T05:17:34;40.17;;;29.80;;
27728;SDS011;15126;42.186;24.340;2022-12-29T05:20:00;38.33;;;29.07;;
27728;SDS011;15126;42.186;24.340;2022-12-29T05:22:27;37.87;;;29.80;;
27728;SDS011;15126;42.186;24.340;2022-12-29T05:24:54;41.87;;;30.17;;
27728;SDS011;15126;42.186;24.340;2022-12-29T05:27:21;38.30;;;30.30;;
27728;SDS011;15126;42.186;24.340;2022-12-29T05:29:47;39.13;;;32.73;;
27728;SDS011;15126;42.186;24.340;2022-12-29T05:32:16;37.13;;;31.50;;
27728;SDS011;15126;42.186;24.340;2022-12-29T05:34:42;37.60;;;31.47;;
27728;SDS011;15126;42.186;24.340;2022-12-29T05:37:09;39.80;;;30.17;;
27728;SDS011;15126;42.186;24.340;2022-12-29T05:39:36;39.13;;;32.17;;
27728;SDS011;15126;42.186;24.340;2022-12-29T05:42:03;39.07;;;32.60;;
27728;SDS011;15126;42.186;24.340;2022-12-29T05:44:30;42.73;;;33.97;;
27728;SDS011;15126;42.186;24.340;2022-12-29T05:46:56;42.27;;;32.90;;
27728;SDS011;15126;42.186;24.340;2022-12-29T05:49:24;41.03;;;32.37;;
27728;SDS011;15126;42.186;24.340;2022-12-29T05:51:51;41.77;;;34.40;;
27728;SDS011;15126;42.186;24.340;2022-12-29T05:54:18;39.63;;;33.80;;
27728;SDS011;15126;42.186;24.340;2022-12-29T05:56:45;48.00;;;37.60;;
27728;SDS011;15126;42.186;24.340;2022-12-29T05:59:11;46.87;;;35.53;;
27728;SDS011;15126;42.186;24.340;2022-12-29T06:01:38;47.97;;;36.13;;
27728;SDS011;15126;42.186;24.340;2022-12-29T06:04:05;53.87;;;36.10;;
27728;SDS011;15126;42.186;24.340;2022-12-29T06:06:33;46.03;;;36.53;;
27728;SDS011;15126;42.186;24.340;2022-12-29T06:09:00;43.97;;;35.10;;
27728;SDS011;15126;42.186;24.340;2022-12-29T06:11:29;53.57;;;39.20;;
27728;SDS011;15126;42.186;24.340;2022-12-29T06:13:56;58.27;;;40.77;;
27728;SDS011;15126;42.186;24.340;2022-12-29T06:16:23;75.07;;;46.27;;
27728;SDS011;15126;42.186;24.340;2022-12-29T06:18:50;58.43;;;46.37;;
27728;SDS011;15126;42.186;24.340;2022-12-29T06:21:16;77.70;;;54.83;;
27728;SDS011;15126;42.186;24.340;2022-12-29T06:23:45;98.30;;;66.53;;
27728;SDS011;15126;42.186;24.340;2022-12-29T06:26:11;94.53;;;67.23;;
27728;SDS011;15126;42.186;24.340;2022-12-29T06:28:38;77.17;;;62.97;;
27728;SDS011;15126;42.186;24.340;2022-12-29T06:31:08;89.70;;;64.43;;
27728;SDS011;15126;42.186;24.340;2022-12-29T06:33:35;86.67;;;59.07;;
27728;SDS011;15126;42.186;24.340;2022-12-29T06:36:02;92.07;;;62.20;;
27728;SDS011;15126;42.186;24.340;2022-12-29T06:38:29;86.73;;;61.57;;
27728;SDS011;15126;42.186;24.340;2022-12-29T06:40:57;95.50;;;67.37;;
27728;SDS011;15126;42.186;24.340;2022-12-29T06:43:24;106.00;;;69.20;;
27728;SDS011;15126;42.186;24.340;2022-12-29T06:45:51;116.13;;;86.40;;
27728;SDS011;15126;42.186;24.340;2022-12-29T06:48:18;122.23;;;82.97;;
27728;SDS011;15126;42.186;24.340;2022-12-29T06:50:44;96.63;;;69.70;;
27728;SDS011;15126;42.186;24.340;2022-12-29T06:53:11;100.10;;;71.90;;
27728;SDS011;15126;42.186;24.340;2022-12-29T06:55:38;97.90;;;66.97;;
27728;SDS011;15126;42.186;24.340;2022-12-29T06:58:07;82.97;;;59.17;;
27728;SDS011;15126;42.186;24.340;2022-12-29T07:00:33;76.70;;;58.77;;
27728;SDS011;15126;42.186;24.340;2022-12-29T07:03:00;75.73;;;56.27;;
27728;SDS011;15126;42.186;24.340;2022-12-29T07:05:30;65.37;;;52.43;;
27728;SDS011;15126;42.186;24.340;2022-12-29T07:07:57;65.40;;;50.70;;
27728;SDS011;15126;42.186;24.340;2022-12-29T07:10:25;72.27;;;50.83;;
27728;SDS011;15126;42.186;24.340;2022-12-29T07:12:52;63.73;;;49.17;;
27728;SDS011;15126;42.186;24.340;2022-12-29T07:15:20;56.13;;;45.93;;
27728;SDS011;15126;42.186;24.340;2022-12-29T07:17:47;67.60;;;45.00;;
27728;SDS011;15126;42.186;24.340;2022-12-29T07:20:15;54.00;;;46.27;;
27728;SDS011;15126;42.186;24.340;2022-12-29T07:22:42;48.93;;;42.83;;
27728;SDS011;15126;42.186;24.340;2022-12-29T07:25:09;54.87;;;43.67;;
27728;SDS011;15126;42.186;24.340;2022-12-29T07:27:36;47.50;;;41.03;;
27728;SDS011;15126;42.186;24.340;2022-12-29T07:30:03;53.20;;;37.30;;
27728;SDS011;15126;42.186;24.340;2022-12-29T07:32:33;47.57;;;36.10;;
27728;SDS011;15126;42.186;24.340;2022-12-29T07:35:00;40.73;;;34.37;;
27728;SDS011;15126;42.186;24.340;2022-12-29T07:37:27;43.07;;;34.17;;
27728;SDS011;15126;42.186;24.340;2022-12-29T07:39:54;38.10;;;30.37;;
27728;SDS011;15126;42.186;24.340;2022-12-29T07:42:21;35.13;;;31.23;;
27728;SDS011;15126;42.186;24.340;2022-12-29T07:44:48;40.23;;;32.97;;
27728;SDS011;15126;42.186;24.340;2022-12-29T07:47:15;39.90;;;33.33;;
27728;SDS011;15126;42.186;24.340;2022-12-29T07:49:43;45.20;;;34.60;;
27728;SDS011;15126;42.186;24.340;2022-12-29T07:52:10;34.30;;;29.87;;
27728;SDS011;15126;42.186;24.340;2022-12-29T07:54:37;38.80;;;31.30;;
27728;SDS011;15126;42.186;24.340;2022-12-29T07:57:03;43.23;;;31.87;;
27728;SDS011;15126;42.186;24.340;2022-12-29T07:59:31;34.93;;;27.70;;
27728;SDS011;15126;42.186;24.340;2022-12-29T08:01:58;37.27;;;29.07;;
27728;SDS011;15126;42.186;24.340;2022-12-29T08:04:25;33.77;;;27.73;;
27728;SDS011;15126;42.186;24.340;2022-12-29T08:06:53;34.03;;;27.87;;
27728;SDS011;15126;42.186;24.340;2022-12-29T08:09:20;34.07;;;29.67;;
27728;SDS011;15126;42.186;24.340;2022-12-29T08:11:46;39.93;;;27.63;;
27728;SDS011;15126;42.186;24.340;2022-12-29T08:14:13;36.90;;;31.10;;
27728;SDS011;15126;42.186;24.340;2022-12-29T08:16:40;35.17;;;29.43;;
27728;SDS011;15126;42.186;24.340;2022-12-29T08:19:09;35.20;;;30.90;;
27728;SDS011;15126;42.186;24.340;2022-12-29T08:21:36;34.53;;;29.23;;
27728;SDS011;15126;42.186;24.340;2022-12-29T08:24:05;37.67;;;30.37;;
27728;SDS011;15126;42.186;24.340;2022-12-29T08:26:32;44.63;;;32.80;;
27728;SDS011;15126;42.186;24.340;2022-12-29T08:28:59;51.37;;;35.87;;
27728;SDS011;15126;42.186;24.340;2022-12-29T08:31:26;51.57;;;34.67;;
27728;SDS011;15126;42.186;24.340;2022-12-29T08:33:53;39.73;;;34.43;;
27728;SDS011;15126;42.186;24.340;2022-12-29T08:36:19;44.73;;;32.47;;
27728;SDS011;15126;42.186;24.340;2022-12-29T08:38:46;37.50;;;32.97;;
27728;SDS011;15126;42.186;24.340;2022-12-29T08:41:14;41.73;;;32.07;;
27728;SDS011;15126;42.186;24.340;2022-12-29T08:43:41;46.83;;;35.03;;
27728;SDS011;15126;42.186;24.340;2022-12-29T08:46:12;37.07;;;31.17;;
27728;SDS011;15126;42.186;24.340;2022-12-29T08:48:39;40.53;;;31.73;;
27728;SDS011;15126;42.186;24.340;2022-12-29T08:51:05;35.40;;;31.17;;
27728;SDS011;15126;42.186;24.340;2022-12-29T08:53:33;35.13;;;29.20;;
27728;SDS011;15126;42.186;24.340;2022-12-29T08:56:00;41.93;;;29.97;;
27728;SDS011;15126;42.186;24.340;2022-12-29T08:58:31;39.47;;;30.00;;
27728;SDS011;15126;42.186;24.340;2022-12-29T09:00:58;38.10;;;29.20;;
27728;SDS011;15126;42.186;24.340;2022-12-29T09:03:26;40.27;;;30.50;;
27728;SDS011;15126;42.186;24.340;2022-12-29T09:05:53;42.57;;;31.20;;
27728;SDS011;15126;42.186;24.340;2022-12-29T09:08:21;42.13;;;31.73;;
27728;SDS011;15126;42.186;24.340;2022-12-29T09:10:48;42.80;;;32.37;;
27728;SDS011;15126;42.186;24.340;2022-12-29T09:13:16;41.60;;;31.73;;
27728;SDS011;15126;42.186;24.340;2022-12-29T09:15:46;36.87;;;30.10;;
27728;SDS011;15126;42.186;24.340;2022-12-29T09:18:13;42.03;;;31.37;;
27728;SDS011;15126;42.186;24.340;2022-12-29T09:20:40;36.33;;;30.63;;
27728;SDS011;15126;42.186;24.340;2022-12-29T09:23:06;35.37;;;30.07;;
27728;SDS011;15126;42.186;24.340;2022-12-29T09:25:33;38.07;;;27.63;;
27728;SDS011;15126;42.186;24.340;2022-12-29T09:28:00;41.80;;;31.13;;
27728;SDS011;15126;42.186;24.340;2022-12-29T09:30:32;34.83;;;27.03;;
27728;SDS011;15126;42.186;24.340;2022-12-29T09:33:01;33.27;;;27.43;;
27728;SDS011;15126;42.186;24.340;2022-12-29T09:35:27;35.83;;;28.67;;
27728;SDS011;15126;42.186;24.340;2022-12-29T09:37:54;39.13;;;31.00;;
27728;SDS011;15126;42.186;24.340;2022-12-29T09:40:23;34.83;;;28.53;;
27728;SDS011;15126;42.186;24.340;2022-12-29T09:45:54;35.67;;;28.73;;
27728;SDS011;15126;42.186;24.340;2022-12-29T09:48:27;41.87;;;28.90;;
27728;SDS011;15126;42.186;24.340;2022-12-29T09:50:59;34.27;;;30.13;;
27728;SDS011;15126;42.186;24.340;2022-12-29T09:53:30;36.33;;;29.33;;
27728;SDS011;15126;42.186;24.340;2022-12-29T09:56:03;33.77;;;29.73;;
27728;SDS011;15126;42.186;24.340;2022-12-29T09:58:32;32.70;;;28.03;;
27728;SDS011;15126;42.186;24.340;2022-12-29T10:01:04;52.40;;;40.37;;
27728;SDS011;15126;42.186;24.340;2022-12-29T10:03:40;54.07;;;48.27;;
27728;SDS011;15126;42.186;24.340;2022-12-29T10:06:14;44.93;;;37.97;;
27728;SDS011;15126;42.186;24.340;2022-12-29T10:08:47;41.60;;;31.73;;
27728;SDS011;15126;42.186;24.340;2022-12-29T10:11:21;34.67;;;30.97;;
27728;SDS011;15126;42.186;24.340;2022-12-29T10:14:01;33.13;;;29.47;;
27728;SDS011;15126;42.186;24.340;2022-12-29T10:16:51;42.10;;;37.30;;
27728;SDS011;15126;42.186;24.340;2022-12-29T10:19:35;51.93;;;36.50;;
27728;SDS011;15126;42.186;24.340;2022-12-29T10:22:18;44.63;;;34.50;;
27728;SDS011;15126;42.186;24.340;2022-12-29T10:24:58;44.83;;;35.10;;
27728;SDS011;15126;42.186;24.340;2022-12-29T10:27:30;38.10;;;33.87;;
27728;SDS011;15126;42.186;24.340;2022-12-29T10:29:59;41.93;;;37.37;;
27728;SDS011;15126;42.186;24.340;2022-12-29T10:32:31;39.17;;;33.00;;
27728;SDS011;15126;42.186;24.340;2022-12-29T10:35:05;55.27;;;43.40;;
27728;SDS011;15126;42.186;24.340;2022-12-29T10:37:40;36.60;;;32.17;;
27728;SDS011;15126;42.186;24.340;2022-12-29T10:40:15;47.23;;;38.10;;
27728;SDS011;15126;42.186;24.340;2022-12-29T10:42:50;116.53;;;72.93;;
27728;SDS011;15126;42.186;24.340;2022-12-29T10:45:18;37.90;;;33.83;;
27728;SDS011;15126;42.186;24.340;2022-12-29T10:47:52;42.83;;;34.40;;
27728;SDS011;15126;42.186;24.340;2022-12-29T10:50:25;47.40;;;37.03;;
27728;SDS011;15126;42.186;24.340;2022-12-29T10:52:54;38.27;;;31.53;;
27728;SDS011;15126;42.186;24.340;2022-12-29T10:55:26;36.47;;;32.33;;
27728;SDS011;15126;42.186;24.340;2022-12-29T10:57:56;38.47;;;32.30;;
27728;SDS011;15126;42.186;24.340;2022-12-29T11:00:29;38.70;;;34.27;;
27728;SDS011;15126;42.186;24.340;2022-12-29T11:03:04;41.57;;;33.97;;
27728;SDS011;15126;42.186;24.340;2022-12-29T11:05:46;37.87;;;33.80;;
27728;SDS011;15126;42.186;24.340;2022-12-29T11:08:19;41.27;;;33.43;;
27728;SDS011;15126;42.186;24.340;2022-12-29T11:10:57;44.03;;;35.27;;
27728;SDS011;15126;42.186;24.340;2022-12-29T11:13:26;40.27;;;32.47;;
27728;SDS011;15126;42.186;24.340;2022-12-29T11:15:54;38.57;;;31.80;;
27728;SDS011;15126;42.186;24.340;2022-12-29T11:18:22;35.63;;;31.70;;
27728;SDS011;15126;42.186;24.340;2022-12-29T11:20:53;36.37;;;30.57;;
27728;SDS011;15126;42.186;24.340;2022-12-29T11:23:25;37.17;;;30.40;;
27728;SDS011;15126;42.186;24.340;2022-12-29T11:26:15;33.83;;;30.23;;
27728;SDS011;15126;42.186;24.340;2022-12-29T11:28:44;34.10;;;30.50;;
27728;SDS011;15126;42.186;24.340;2022-12-29T11:31:15;36.53;;;30.63;;
27728;SDS011;15126;42.186;24.340;2022-12-29T11:33:43;33.57;;;27.80;;
27728;SDS011;15126;42.186;24.340;2022-12-29T11:36:13;33.30;;;28.37;;
27728;SDS011;15126;42.186;24.340;2022-12-29T11:38:45;32.73;;;29.23;;
27728;SDS011;15126;42.186;24.340;2022-12-29T11:41:18;32.93;;;26.30;;
27728;SDS011;15126;42.186;24.340;2022-12-29T11:43:51;30.53;;;26.93;;
27728;SDS011;15126;42.186;24.340;2022-12-29T11:46:21;32.23;;;28.77;;
27728;SDS011;15126;42.186;24.340;2022-12-29T11:48:50;32.07;;;28.73;;
27728;SDS011;15126;42.186;24.340;2022-12-29T11:51:28;32.20;;;28.70;;
27728;SDS011;15126;42.186;24.340;2022-12-29T11:53:57;34.03;;;28.77;;
27728;SDS011;15126;42.186;24.340;2022-12-29T11:56:34;30.63;;;27.33;;
27728;SDS011;15126;42.186;24.340;2022-12-29T12:02:08;31.67;;;28.13;;
27728;SDS011;15126;42.186;24.340;2022-12-29T12:04:47;31.40;;;27.37;;
27728;SDS011;15126;42.186;24.340;2022-12-29T12:07:22;30.43;;;26.27;;
27728;SDS011;15126;42.186;24.340;2022-12-29T12:10:01;28.70;;;25.73;;
27728;SDS011;15126;42.186;24.340;2022-12-29T12:12:31;32.30;;;26.43;;
27728;SDS011;15126;42.186;24.340;2022-12-29T12:15:04;28.27;;;25.47;;
27728;SDS011;15126;42.186;24.340;2022-12-29T12:17:42;30.57;;;27.37;;
27728;SDS011;15126;42.186;24.340;2022-12-29T12:20:16;33.23;;;27.70;;
27728;SDS011;15126;42.186;24.340;2022-12-29T12:22:50;31.00;;;26.23;;
27728;SDS011;15126;42.186;24.340;2022-12-29T12:25:25;32.10;;;27.43;;
27728;SDS011;15126;42.186;24.340;2022-12-29T12:28:00;34.07;;;29.03;;
27728;SDS011;15126;42.186;24.340;2022-12-29T12:30:36;29.70;;;26.57;;
27728;SDS011;15126;42.186;24.340;2022-12-29T12:33:10;34.80;;;28.80;;
27728;SDS011;15126;42.186;24.340;2022-12-29T12:35:47;39.53;;;29.13;;
27728;SDS011;15126;42.186;24.340;2022-12-29T12:38:27;36.50;;;29.70;;
27728;SDS011;15126;42.186;24.340;2022-12-29T12:41:08;33.57;;;28.47;;
27728;SDS011;15126;42.186;24.340;2022-12-29T12:43:39;32.63;;;27.97;;
27728;SDS011;15126;42.186;24.340;2022-12-29T12:46:21;34.57;;;30.13;;
27728;SDS011;15126;42.186;24.340;2022-12-29T12:49:14;32.40;;;28.60;;
27728;SDS011;15126;42.186;24.340;2022-12-29T12:52:07;35.83;;;28.33;;
27728;SDS011;15126;42.186;24.340;2022-12-29T12:54:49;35.93;;;27.67;;
27728;SDS011;15126;42.186;24.340;2022-12-29T12:57:38;33.03;;;29.10;;
27728;SDS011;15126;42.186;24.340;2022-12-29T13:00:17;34.57;;;27.10;;
27728;SDS011;15126;42.186;24.340;2022-12-29T13:02:49;31.83;;;27.67;;
27728;SDS011;15126;42.186;24.340;2022-12-29T13:08:46;33.60;;;26.53;;
27728;SDS011;15126;42.186;24.340;2022-12-29T13:11:31;31.30;;;25.90;;
27728;SDS011;15126;42.186;24.340;2022-12-29T13:14:21;32.80;;;25.97;;
27728;SDS011;15126;42.186;24.340;2022-12-29T13:17:00;30.97;;;24.87;;
27728;SDS011;15126;42.186;24.340;2022-12-29T13:19:34;29.80;;;26.60;;
27728;SDS011;15126;42.186;24.340;2022-12-29T13:22:09;33.83;;;28.07;;
27728;SDS011;15126;42.186;24.340;2022-12-29T13:24:46;38.43;;;29.13;;
27728;SDS011;15126;42.186;24.340;2022-12-29T13:27:23;43.57;;;29.07;;
27728;SDS011;15126;42.186;24.340;2022-12-29T13:29:59;32.00;;;26.60;;
27728;SDS011;15126;42.186;24.340;2022-12-29T13:32:35;36.93;;;29.97;;
27728;SDS011;15126;42.186;24.340;2022-12-29T13:35:18;35.50;;;27.33;;
27728;SDS011;15126;42.186;24.340;2022-12-29T13:37:57;33.67;;;26.43;;
27728;SDS011;15126;42.186;24.340;2022-12-29T13:40:31;34.17;;;26.53;;
27728;SDS011;15126;42.186;24.340;2022-12-29T13:43:05;35.43;;;26.83;;
27728;SDS011;15126;42.186;24.340;2022-12-29T13:45:33;30.47;;;24.43;;
27728;SDS011;15126;42.186;24.340;2022-12-29T13:48:03;36.00;;;26.73;;
27728;SDS011;15126;42.186;24.340;2022-12-29T13:50:35;35.17;;;25.73;;
27728;SDS011;15126;42.186;24.340;2022-12-29T13:53:06;30.00;;;24.40;;
27728;SDS011;15126;42.186;24.340;2022-12-29T13:55:47;33.63;;;26.10;;
27728;SDS011;15126;42.186;24.340;2022-12-29T13:58:24;34.07;;;27.07;;
27728;SDS011;15126;42.186;24.340;2022-12-29T14:00:59;33.87;;;24.63;;
27728;SDS011;15126;42.186;24.340;2022-12-29T14:03:42;31.57;;;26.00;;
27728;SDS011;15126;42.186;24.340;2022-12-29T14:06:22;31.13;;;27.43;;
27728;SDS011;15126;42.186;24.340;2022-12-29T14:08:52;32.27;;;26.33;;
27728;SDS011;15126;42.186;24.340;2022-12-29T14:11:21;32.53;;;26.97;;
27728;SDS011;15126;42.186;24.340;2022-12-29T14:13:52;30.10;;;26.63;;
27728;SDS011;15126;42.186;24.340;2022-12-29T14:16:26;33.37;;;26.20;;
27728;SDS011;15126;42.186;24.340;2022-12-29T14:19:05;30.60;;;25.73;;
27728;SDS011;15126;42.186;24.340;2022-12-29T14:21:38;32.37;;;27.00;;
27728;SDS011;15126;42.186;24.340;2022-12-29T14:30:13;38.33;;;26.40;;
27728;SDS011;15126;42.186;24.340;2022-12-29T14:33:25;35.83;;;26.70;;
27728;SDS011;15126;42.186;24.340;2022-12-29T14:35:54;33.33;;;26.10;;
27728;SDS011;15126;42.186;24.340;2022-12-29T14:38:23;37.63;;;29.53;;
27728;SDS011;15126;42.186;24.340;2022-12-29T14:40:52;32.50;;;28.70;;
27728;SDS011;15126;42.186;24.340;2022-12-29T14:43:40;40.10;;;31.40;;
27728;SDS011;15126;42.186;24.340;2022-12-29T14:46:18;37.23;;;29.33;;
27728;SDS011;15126;42.186;24.340;2022-12-29T14:48:45;38.20;;;31.80;;
27728;SDS011;15126;42.186;24.340;2022-12-29T14:51:16;44.73;;;31.60;;
27728;SDS011;15126;42.186;24.340;2022-12-29T14:53:46;41.90;;;34.03;;